Time;durP1;ratioP1;P1;durP2;ratioP2;P2;SDS_P1;SDS_P2;PMS_P1;PMS_P2;Temp;Humidity;BMP_temperature;BMP_pressure;BME280_temperature;BME280_humidity;BME280_pressure;Samples;Min_cycle;Max_cycle;Signal;HPM_P1;HPM_P2
2023/10/23 00:00:04;;;;;;;8.23;2.65;;;;;;;;;;5058181;28;20024;-87
2023/10/23 00:02:30;;;;;;;4.57;2.72;;;;;;;;;;5057898;28;20024;-88
2023/10/23 00:04:55;;;;;;;6.95;2.15;;;;;;;;;;5057159;28;20033;-87
2023/10/23 00:07:20;;;;;;;9.37;3.00;;;;;;;;;;5057658;28;20028;-86
2023/10/23 00:09:45;;;;;;;11.70;2.78;;;;;;;;;;5058224;28;20327;-87
2023/10/23 00:12:11;;;;;;;8.13;2.87;;;;;;;;;;5075814;28;20087;-87
2023/10/23 00:14:36;;;;;;;9.20;2.88;;;;;;;;;;5057626;28;20348;-87
2023/10/23 00:17:01;;;;;;;9.48;2.47;;;;;;;;;;5058024;28;20029;-87
2023/10/23 00:19:26;;;;;;;8.80;2.00;;;;;;;;;;5057535;28;20028;-87
2023/10/23 00:21:52;;;;;;;4.78;2.03;;;;;;;;;;5057658;28;20277;-87
2023/10/23 00:24:17;;;;;;;6.15;2.30;;;;;;;;;;5057994;28;20028;-87
2023/10/23 00:26:42;;;;;;;5.50;2.10;;;;;;;;;;5076110;28;20028;-87
2023/10/23 00:29:08;;;;;;;6.07;2.60;;;;;;;;;;5057718;28;20258;-87
2023/10/23 00:31:33;;;;;;;5.53;2.80;;;;;;;;;;5057079;28;20265;-87
2023/10/23 00:33:58;;;;;;;6.05;2.50;;;;;;;;;;5057454;28;20025;-87
2023/10/23 00:36:24;;;;;;;3.90;2.25;;;;;;;;;;5057316;28;20047;-87
2023/10/23 00:38:49;;;;;;;4.97;1.30;;;;;;;;;;5056991;28;20020;-87
2023/10/23 00:41:14;;;;;;;3.30;1.73;;;;;;;;;;5056461;28;20296;-87
2023/10/23 00:43:39;;;;;;;2.57;1.60;;;;;;;;;;5057205;28;20305;-87
2023/10/23 00:46:14;;;;;;;2.30;1.65;;;;;;;;;;5057502;28;20052;-87
2023/10/23 00:48:39;;;;;;;4.47;1.50;;;;;;;;;;5057307;28;20020;-87
2023/10/23 00:51:05;;;;;;;3.28;1.88;;;;;;;;;;5057374;28;20086;-87
2023/10/23 00:53:32;;;;;;;2.38;1.60;;;;;;;;;;5057194;28;20069;-87
2023/10/23 00:55:58;;;;;;;3.00;1.88;;;;;;;;;;5057275;28;20059;-87
2023/10/23 00:58:26;;;;;;;3.42;2.03;;;;;;;;;;5057337;28;20043;-87
2023/10/23 01:00:52;;;;;;;4.30;2.15;;;;;;;;;;5075090;28;20476;-87
2023/10/23 01:03:17;;;;;;;3.00;2.10;;;;;;;;;;5074727;28;20477;-87
2023/10/23 01:05:42;;;;;;;9.17;2.00;;;;;;;;;;5074585;28;20053;-87
2023/10/23 01:08:08;;;;;;;4.40;2.05;;;;;;;;;;5074838;28;20257;-87
2023/10/23 01:10:33;;;;;;;3.80;2.40;;;;;;;;;;5056418;28;20166;-87
2023/10/23 01:12:58;;;;;;;5.20;2.58;;;;;;;;;;5057038;28;20020;-87
2023/10/23 01:15:24;;;;;;;8.38;2.15;;;;;;;;;;5056698;28;20027;-87
2023/10/23 01:17:49;;;;;;;3.83;2.42;;;;;;;;;;5056294;28;20381;-87
2023/10/23 01:20:16;;;;;;;5.50;2.13;;;;;;;;;;5073395;28;20066;-86
2023/10/23 01:22:42;;;;;;;3.92;2.10;;;;;;;;;;5056431;28;20028;-87
2023/10/23 01:25:16;;;;;;;5.60;2.17;;;;;;;;;;5056458;28;20087;-87
2023/10/23 01:27:42;;;;;;;3.63;2.10;;;;;;;;;;5056757;28;20752;-87
2023/10/23 01:30:11;;;;;;;9.30;2.35;;;;;;;;;;5074796;28;20028;-87
2023/10/23 01:32:36;;;;;;;6.38;2.55;;;;;;;;;;5056634;28;20035;-87
2023/10/23 01:35:02;;;;;;;4.10;2.03;;;;;;;;;;5056328;28;20025;-87
2023/10/23 01:37:27;;;;;;;4.45;1.90;;;;;;;;;;5074424;28;20028;-87
2023/10/23 01:39:52;;;;;;;3.00;1.60;;;;;;;;;;5056210;28;20083;-87
2023/10/23 01:42:18;;;;;;;5.43;1.90;;;;;;;;;;5056212;28;20700;-87
2023/10/23 01:44:43;;;;;;;3.30;2.13;;;;;;;;;;5074238;28;20614;-87
2023/10/23 01:47:08;;;;;;;4.10;2.33;;;;;;;;;;5056154;28;20767;-87
2023/10/23 01:49:33;;;;;;;4.20;2.23;;;;;;;;;;5056367;28;20258;-87
2023/10/23 01:51:58;;;;;;;4.00;2.20;;;;;;;;;;5056052;28;20257;-87
2023/10/23 01:54:24;;;;;;;2.57;1.70;;;;;;;;;;5056268;28;20036;-87
2023/10/23 01:56:49;;;;;;;4.43;1.87;;;;;;;;;;5055456;28;20261;-87
2023/10/23 01:59:14;;;;;;;5.80;2.00;;;;;;;;;;5073870;28;20333;-87
2023/10/23 02:01:40;;;;;;;5.03;1.80;;;;;;;;;;5056113;28;20314;-87
2023/10/23 02:04:05;;;;;;;2.45;1.55;;;;;;;;;;5055972;28;20526;-87
2023/10/23 02:06:31;;;;;;;12.38;1.67;;;;;;;;;;5074444;28;20533;-87
2023/10/23 02:08:56;;;;;;;3.55;1.83;;;;;;;;;;5056526;28;20016;-87
2023/10/23 02:11:21;;;;;;;3.53;1.73;;;;;;;;;;5060830;28;20047;-87
2023/10/23 02:13:46;;;;;;;6.57;1.60;;;;;;;;;;5078396;28;20342;-87
2023/10/23 02:16:12;;;;;;;2.47;1.47;;;;;;;;;;5077703;28;20331;-87
2023/10/23 02:18:37;;;;;;;2.38;1.50;;;;;;;;;;5060412;28;20276;-87
2023/10/23 02:21:02;;;;;;;1.33;1.10;;;;;;;;;;5059693;28;20082;-87
2023/10/23 02:23:29;;;;;;;2.20;1.38;;;;;;;;;;5059641;28;20304;-87
2023/10/23 02:25:55;;;;;;;3.25;1.80;;;;;;;;;;5060142;28;20016;-87
2023/10/23 02:28:20;;;;;;;3.42;2.05;;;;;;;;;;5059617;28;20043;-87
2023/10/23 02:30:45;;;;;;;4.33;2.07;;;;;;;;;;5059276;28;20013;-87
2023/10/23 02:33:10;;;;;;;2.15;1.50;;;;;;;;;;5076734;28;20265;-88
2023/10/23 02:35:36;;;;;;;2.60;1.60;;;;;;;;;;5077211;28;20377;-87
2023/10/23 02:38:02;;;;;;;8.43;2.03;;;;;;;;;;5059641;28;20024;-87
2023/10/23 02:40:27;;;;;;;4.07;1.83;;;;;;;;;;5076754;28;20061;-87
2023/10/23 02:42:53;;;;;;;2.58;1.70;;;;;;;;;;5060279;28;20421;-87
2023/10/23 02:45:18;;;;;;;1.60;1.30;;;;;;;;;;5059559;28;20054;-87
2023/10/23 02:47:43;;;;;;;5.90;1.95;;;;;;;;;;5077677;28;20016;-87
2023/10/23 02:50:08;;;;;;;2.27;1.60;;;;;;;;;;5077719;28;20013;-87
2023/10/23 02:52:34;;;;;;;3.92;1.65;;;;;;;;;;5059157;28;20620;-87
2023/10/23 02:54:59;;;;;;;3.20;1.63;;;;;;;;;;5059472;28;20499;-87
2023/10/23 02:57:24;;;;;;;1.70;1.27;;;;;;;;;;5059593;28;20027;-87
2023/10/23 02:59:49;;;;;;;9.88;1.80;;;;;;;;;;5059181;28;20024;-87
2023/10/23 03:02:16;;;;;;;2.57;1.57;;;;;;;;;;5077132;28;20035;-87
2023/10/23 03:04:41;;;;;;;2.40;1.60;;;;;;;;;;5076895;28;20300;-87
2023/10/23 03:07:07;;;;;;;3.00;1.60;;;;;;;;;;5059018;28;20039;-87
2023/10/23 03:09:32;;;;;;;1.38;1.23;;;;;;;;;;5076235;28;20017;-86
2023/10/23 03:11:57;;;;;;;5.30;1.60;;;;;;;;;;5059622;28;20021;-87
2023/10/23 03:14:22;;;;;;;1.90;1.50;;;;;;;;;;5059199;28;20273;-87
2023/10/23 03:16:48;;;;;;;4.90;1.83;;;;;;;;;;5059136;28;20395;-87
2023/10/23 03:19:13;;;;;;;2.35;1.33;;;;;;;;;;5077207;28;20037;-87
2023/10/23 03:21:38;;;;;;;2.67;1.63;;;;;;;;;;5058479;28;20048;-87
2023/10/23 03:24:04;;;;;;;2.05;1.50;;;;;;;;;;5059028;28;20269;-87
2023/10/23 03:26:29;;;;;;;2.47;1.58;;;;;;;;;;5058953;28;20036;-87
2023/10/23 03:28:54;;;;;;;4.90;1.60;;;;;;;;;;5076387;28;20009;-87
2023/10/23 03:31:19;;;;;;;4.10;1.80;;;;;;;;;;5058759;28;20311;-88
2023/10/23 03:33:46;;;;;;;3.37;1.90;;;;;;;;;;5058266;28;20017;-87
2023/10/23 03:36:11;;;;;;;2.33;1.67;;;;;;;;;;5076791;28;20034;-86
2023/10/23 03:38:36;;;;;;;2.60;1.60;;;;;;;;;;5058369;28;20472;-87
2023/10/23 03:41:02;;;;;;;1.20;1.10;;;;;;;;;;5058194;28;20399;-87
2023/10/23 03:43:27;;;;;;;4.30;1.95;;;;;;;;;;5057799;28;20131;-86
2023/10/23 03:45:53;;;;;;;3.80;1.55;;;;;;;;;;5058309;28;20012;-83
2023/10/23 03:48:18;;;;;;;2.60;1.30;;;;;;;;;;5057671;28;20052;-83
2023/10/23 03:50:43;;;;;;;1.90;1.30;;;;;;;;;;5057147;28;20051;-84
2023/10/23 03:53:08;;;;;;;3.67;1.20;;;;;;;;;;5057314;28;20027;-84
2023/10/23 03:55:37;;;;;;;2.30;1.43;;;;;;;;;;5057011;28;20253;-84
2023/10/23 03:58:02;;;;;;;2.15;1.55;;;;;;;;;;5056082;28;20078;-84
2023/10/23 04:00:28;;;;;;;3.63;1.70;;;;;;;;;;5056470;28;20020;-83
2023/10/23 04:02:54;;;;;;;2.97;1.60;;;;;;;;;;5056477;28;20047;-85
2023/10/23 04:05:19;;;;;;;3.10;2.43;;;;;;;;;;5056605;28;20078;-86
2023/10/23 04:07:44;;;;;;;3.87;1.83;;;;;;;;;;5074646;28;20284;-84
2023/10/23 04:10:10;;;;;;;8.03;1.50;;;;;;;;;;5056731;28;20253;-86
2023/10/23 04:12:35;;;;;;;4.28;1.55;;;;;;;;;;5047979;28;20020;-84
2023/10/23 04:15:00;;;;;;;4.07;1.70;;;;;;;;;;5056262;28;20024;-83
2023/10/23 04:17:25;;;;;;;1.60;1.40;;;;;;;;;;5056835;28;20473;-84
2023/10/23 04:19:51;;;;;;;2.72;1.65;;;;;;;;;;5056776;28;20257;-84
2023/10/23 04:22:16;;;;;;;2.58;1.50;;;;;;;;;;5056656;28;20055;-84
2023/10/23 04:24:41;;;;;;;2.93;1.30;;;;;;;;;;5074587;28;20106;-84
2023/10/23 04:27:06;;;;;;;2.30;1.63;;;;;;;;;;5056671;28;20012;-84
2023/10/23 04:29:31;;;;;;;2.13;1.50;;;;;;;;;;5074554;28;20369;-84
2023/10/23 04:31:57;;;;;;;3.87;1.30;;;;;;;;;;5074026;28;20029;-84
2023/10/23 04:34:22;;;;;;;3.13;1.53;;;;;;;;;;5056425;28;20243;-84
2023/10/23 04:36:47;;;;;;;4.63;1.90;;;;;;;;;;5074324;28;20016;-84
2023/10/23 04:39:12;;;;;;;2.70;1.47;;;;;;;;;;5056409;28;20249;-84
2023/10/23 04:41:37;;;;;;;4.07;1.50;;;;;;;;;;5074361;28;20040;-84
2023/10/23 04:44:03;;;;;;;10.60;1.80;;;;;;;;;;5056289;28;20538;-84
2023/10/23 04:46:28;;;;;;;3.97;1.45;;;;;;;;;;5056249;28;20021;-84
2023/10/23 04:48:54;;;;;;;3.07;1.40;;;;;;;;;;5056280;28;20012;-84
2023/10/23 04:51:19;;;;;;;6.00;1.77;;;;;;;;;;5056129;28;20241;-83
2023/10/23 04:53:44;;;;;;;3.97;1.70;;;;;;;;;;5074047;28;20025;-83
2023/10/23 04:56:09;;;;;;;2.50;1.40;;;;;;;;;;5074044;28;20721;-84
2023/10/23 04:58:34;;;;;;;6.60;1.87;;;;;;;;;;5056027;28;20020;-84
2023/10/23 05:01:00;;;;;;;3.90;1.40;;;;;;;;;;5056033;28;20027;-84
2023/10/23 05:03:25;;;;;;;4.93;1.80;;;;;;;;;;5055814;28;20269;-84
2023/10/23 05:05:51;;;;;;;3.67;1.77;;;;;;;;;;5073910;28;20260;-84
2023/10/23 05:08:16;;;;;;;2.88;1.42;;;;;;;;;;5073770;28;20015;-84
2023/10/23 05:10:42;;;;;;;3.13;1.60;;;;;;;;;;5055801;28;20055;-84
2023/10/23 05:13:07;;;;;;;6.72;2.05;;;;;;;;;;5073747;28;20021;-84
2023/10/23 05:15:32;;;;;;;3.05;1.65;;;;;;;;;;5073700;28;20046;-84
2023/10/23 05:17:57;;;;;;;5.07;1.77;;;;;;;;;;5055792;28;20436;-84
2023/10/23 05:20:22;;;;;;;2.50;1.43;;;;;;;;;;5055719;28;20799;-84
2023/10/23 05:22:48;;;;;;;2.20;1.37;;;;;;;;;;5055558;28;20784;-84
2023/10/23 05:25:13;;;;;;;1.47;1.17;;;;;;;;;;5055608;28;20368;-84
2023/10/23 05:27:38;;;;;;;2.70;1.80;;;;;;;;;;5073557;28;20328;-84
2023/10/23 05:30:04;;;;;;;2.83;1.42;;;;;;;;;;5073423;28;20241;-84
2023/10/23 05:32:32;;;;;;;2.85;1.42;;;;;;;;;;5038804;28;20055;-84
2023/10/23 05:34:57;;;;;;;2.00;1.20;;;;;;;;;;5073434;28;20034;-84
2023/10/23 05:37:22;;;;;;;2.97;1.63;;;;;;;;;;5055510;28;20054;-84
2023/10/23 05:39:47;;;;;;;4.53;1.70;;;;;;;;;;5055397;28;20422;-84
2023/10/23 05:42:13;;;;;;;1.90;1.37;;;;;;;;;;5073398;28;20245;-84
2023/10/23 05:44:38;;;;;;;2.85;1.23;;;;;;;;;;5072340;28;20269;-84
2023/10/23 05:47:03;;;;;;;3.07;1.53;;;;;;;;;;5055347;28;20480;-84
2023/10/23 05:49:28;;;;;;;3.33;1.47;;;;;;;;;;5055385;28;20013;-84
2023/10/23 05:51:54;;;;;;;1.73;1.40;;;;;;;;;;5073328;28;20241;-84
2023/10/23 05:54:19;;;;;;;2.53;1.43;;;;;;;;;;5055293;28;20262;-84
2023/10/23 05:56:44;;;;;;;3.58;1.45;;;;;;;;;;5055176;28;20257;-84
2023/10/23 05:59:09;;;;;;;4.10;1.60;;;;;;;;;;5055192;28;20024;-84
2023/10/23 06:01:36;;;;;;;5.33;1.60;;;;;;;;;;5073203;28;20249;-83
2023/10/23 06:04:01;;;;;;;3.55;1.27;;;;;;;;;;5072990;28;20035;-84
2023/10/23 06:06:26;;;;;;;2.97;1.70;;;;;;;;;;5073041;28;20016;-84
2023/10/23 06:08:51;;;;;;;2.80;1.50;;;;;;;;;;5073143;28;20637;-84
2023/10/23 06:11:17;;;;;;;2.80;1.40;;;;;;;;;;5073066;28;20328;-84
2023/10/23 06:13:42;;;;;;;1.80;1.23;;;;;;;;;;5073076;28;20482;-84
2023/10/23 06:16:07;;;;;;;2.03;1.10;;;;;;;;;;5072953;28;20256;-84
2023/10/23 06:18:36;;;;;;;2.55;1.33;;;;;;;;;;5055073;28;20112;-84
2023/10/23 06:21:05;;;;;;;3.35;1.63;;;;;;;;;;5055026;28;20082;-84
2023/10/23 06:23:34;;;;;;;2.95;1.38;;;;;;;;;;5051525;28;20499;-84
2023/10/23 06:25:59;;;;;;;5.75;1.50;;;;;;;;;;5051627;28;20028;-84
2023/10/23 06:28:25;;;;;;;3.08;1.15;;;;;;;;;;5052878;28;20021;-84
2023/10/23 06:30:50;;;;;;;2.63;1.25;;;;;;;;;;5052930;28;20100;-84
2023/10/23 06:33:16;;;;;;;2.10;1.33;;;;;;;;;;5052906;28;20017;-84
2023/10/23 06:35:41;;;;;;;6.10;1.50;;;;;;;;;;5051396;28;20257;-84
2023/10/23 06:38:06;;;;;;;2.97;1.30;;;;;;;;;;5051547;28;20381;-83
2023/10/23 06:40:31;;;;;;;1.42;1.15;;;;;;;;;;5052737;28;20799;-83
2023/10/23 06:42:56;;;;;;;6.27;1.23;;;;;;;;;;5052719;28;20020;-84
2023/10/23 06:45:22;;;;;;;1.10;0.93;;;;;;;;;;5052733;28;20044;-84
2023/10/23 06:47:48;;;;;;;2.30;1.33;;;;;;;;;;5052689;28;20246;-84
2023/10/23 06:50:14;;;;;;;2.53;1.40;;;;;;;;;;5051407;28;20017;-84
2023/10/23 06:52:39;;;;;;;0.90;0.90;;;;;;;;;;5052658;28;20028;-84
2023/10/23 06:55:04;;;;;;;3.00;1.30;;;;;;;;;;5052104;28;20090;-84
2023/10/23 06:57:30;;;;;;;2.05;1.27;;;;;;;;;;5055057;28;20536;-84
2023/10/23 06:59:55;;;;;;;2.60;1.20;;;;;;;;;;5056310;28;20021;-84
2023/10/23 07:02:21;;;;;;;2.00;1.20;;;;;;;;;;5055447;28;20292;-84
2023/10/23 07:04:47;;;;;;;3.85;1.23;;;;;;;;;;5056068;28;20025;-84
2023/10/23 07:07:13;;;;;;;2.90;1.73;;;;;;;;;;5054935;28;20071;-84
2023/10/23 07:09:39;;;;;;;4.10;1.75;;;;;;;;;;5056109;28;20020;-84
2023/10/23 07:12:04;;;;;;;2.50;1.50;;;;;;;;;;5056111;28;20025;-84
2023/10/23 07:14:29;;;;;;;4.22;1.90;;;;;;;;;;5054707;28;20032;-84
2023/10/23 07:16:54;;;;;;;2.77;1.50;;;;;;;;;;5054691;28;20028;-84
2023/10/23 07:19:20;;;;;;;3.93;1.90;;;;;;;;;;5054688;28;20032;-84
2023/10/23 07:21:45;;;;;;;4.00;2.00;;;;;;;;;;5060008;28;20277;-83
2023/10/23 07:24:10;;;;;;;4.93;2.03;;;;;;;;;;5075839;28;20485;-83
2023/10/23 07:26:35;;;;;;;4.18;1.90;;;;;;;;;;5057873;28;20605;-83
2023/10/23 07:29:01;;;;;;;4.33;1.60;;;;;;;;;;5075748;28;20419;-83
2023/10/23 07:31:26;;;;;;;5.03;1.90;;;;;;;;;;5075766;28;20020;-83
2023/10/23 07:33:51;;;;;;;2.17;1.50;;;;;;;;;;5075778;28;20027;-83
2023/10/23 07:36:18;;;;;;;5.15;1.92;;;;;;;;;;5057714;28;20028;-83
2023/10/23 07:38:43;;;;;;;4.50;2.05;;;;;;;;;;5075556;28;20023;-83
2023/10/23 07:41:09;;;;;;;2.70;1.58;;;;;;;;;;5075488;28;20100;-83
2023/10/23 07:43:34;;;;;;;2.25;1.40;;;;;;;;;;5075494;28;20491;-83
2023/10/23 07:46:07;;;;;;;3.50;1.23;;;;;;;;;;5075495;28;20047;-83
2023/10/23 07:48:32;;;;;;;;;;;;;;;;;;5057804;28;20261;-83
2023/10/23 07:50:58;;;;;;;2.73;1.40;;;;;;;;;;5075276;28;19911;-82
2023/10/23 07:53:23;;;;;;;2.75;1.67;;;;;;;;;;5075332;28;20024;-83
2023/10/23 07:55:48;;;;;;;6.20;1.50;;;;;;;;;;5057306;28;20021;-83
2023/10/23 07:58:14;;;;;;;5.50;1.83;;;;;;;;;;5057259;28;20070;-83
2023/10/23 08:00:39;;;;;;;4.78;1.55;;;;;;;;;;5075151;28;20288;-83
2023/10/23 08:03:04;;;;;;;7.40;1.83;;;;;;;;;;5075110;28;20025;-83
2023/10/23 08:05:29;;;;;;;2.47;1.40;;;;;;;;;;5057126;28;20468;-83
2023/10/23 08:07:54;;;;;;;3.20;1.63;;;;;;;;;;5074097;28;20020;-83
2023/10/23 08:10:20;;;;;;;2.83;1.50;;;;;;;;;;5075006;28;20245;-83
2023/10/23 08:12:46;;;;;;;4.33;1.73;;;;;;;;;;5074946;28;20241;-83
2023/10/23 08:15:12;;;;;;;5.40;1.60;;;;;;;;;;5074872;28;20052;-83
2023/10/23 08:17:37;;;;;;;5.43;1.80;;;;;;;;;;5074919;28;20055;-83
2023/10/23 08:20:04;;;;;;;4.38;1.77;;;;;;;;;;5056811;28;20021;-83
2023/10/23 08:22:29;;;;;;;3.30;1.70;;;;;;;;;;5056586;28;20051;-83
2023/10/23 08:24:54;;;;;;;9.30;2.25;;;;;;;;;;5056715;28;20021;-83
2023/10/23 08:27:19;;;;;;;6.03;2.40;;;;;;;;;;5074659;28;20024;-82
2023/10/23 08:29:45;;;;;;;10.15;2.35;;;;;;;;;;5074484;28;20048;-83
2023/10/23 08:32:10;;;;;;;12.30;3.43;;;;;;;;;;5074809;28;20031;-83
2023/10/23 08:34:35;;;;;;;8.67;2.87;;;;;;;;;;5056529;28;20238;-83
2023/10/23 08:37:00;;;;;;;9.50;2.72;;;;;;;;;;5056431;28;20028;-83
2023/10/23 08:39:26;;;;;;;17.13;3.07;;;;;;;;;;5056460;28;20436;-83
2023/10/23 08:41:52;;;;;;;6.32;2.47;;;;;;;;;;5056350;28;20760;-83
2023/10/23 08:44:18;;;;;;;12.93;2.92;;;;;;;;;;5056323;28;20025;-84
2023/10/23 08:46:43;;;;;;;19.47;3.43;;;;;;;;;;5056230;28;20169;-83
2023/10/23 08:49:08;;;;;;;10.87;2.87;;;;;;;;;;5056232;28;20537;-84
2023/10/23 08:51:34;;;;;;;32.05;3.78;;;;;;;;;;5074107;28;20780;-84
2023/10/23 08:54:06;;;;;;;11.85;2.92;;;;;;;;;;5074090;28;20020;-84
2023/10/23 08:56:37;;;;;;;11.60;3.00;;;;;;;;;;5056105;28;20416;-84
2023/10/23 08:59:02;;;;;;;4.72;2.15;;;;;;;;;;5056123;28;20028;-84
2023/10/23 09:01:28;;;;;;;14.63;2.83;;;;;;;;;;5073926;28;20377;-84
2023/10/23 09:03:53;;;;;;;6.00;2.15;;;;;;;;;;5056000;28;20021;-83
2023/10/23 09:06:18;;;;;;;13.02;2.78;;;;;;;;;;5073802;28;20008;-83
2023/10/23 09:08:44;;;;;;;8.30;2.50;;;;;;;;;;5055929;28;20016;-84
2023/10/23 09:11:09;;;;;;;8.35;3.05;;;;;;;;;;5055895;28;20249;-84
2023/10/23 09:13:37;;;;;;;11.30;2.58;;;;;;;;;;5055828;28;20066;-84
2023/10/23 09:16:04;;;;;;;11.15;2.47;;;;;;;;;;5073784;28;20541;-84
2023/10/23 09:18:29;;;;;;;12.02;2.40;;;;;;;;;;5073460;28;20024;-84
2023/10/23 09:20:54;;;;;;;12.57;2.60;;;;;;;;;;5055760;28;20025;-84
2023/10/23 09:23:20;;;;;;;8.23;2.38;;;;;;;;;;5073371;28;20045;-83
2023/10/23 09:25:47;;;;;;;11.38;2.45;;;;;;;;;;5055631;28;20012;-84
2023/10/23 09:28:13;;;;;;;12.25;2.58;;;;;;;;;;5055579;28;20116;-84
2023/10/23 09:30:38;;;;;;;10.07;2.55;;;;;;;;;;5073543;28;20048;-83
2023/10/23 09:33:05;;;;;;;5.97;2.43;;;;;;;;;;5073451;28;20021;-84
2023/10/23 09:35:31;;;;;;;12.02;2.70;;;;;;;;;;5073386;28;20249;-84
2023/10/23 09:37:56;;;;;;;6.57;2.03;;;;;;;;;;5055508;28;20499;-84
2023/10/23 09:40:22;;;;;;;5.57;2.25;;;;;;;;;;5055492;28;20039;-84
2023/10/23 09:42:47;;;;;;;13.48;3.58;;;;;;;;;;5073354;28;20025;-82
2023/10/23 09:45:12;;;;;;;7.25;2.42;;;;;;;;;;5073226;28;20025;-83
2023/10/23 09:47:39;;;;;;;13.07;2.35;;;;;;;;;;5055304;28;20040;-84
2023/10/23 09:50:04;;;;;;;11.95;2.65;;;;;;;;;;5055458;28;20468;-84
2023/10/23 09:52:34;;;;;;;11.00;2.53;;;;;;;;;;5073305;28;20017;-84
2023/10/23 09:55:06;;;;;;;6.95;2.00;;;;;;;;;;5073448;28;20099;-84
2023/10/23 09:57:36;;;;;;;10.38;2.03;;;;;;;;;;5055243;28;20021;-84
2023/10/23 10:00:07;;;;;;;6.70;2.30;;;;;;;;;;5055261;28;20472;-84
2023/10/23 10:02:33;;;;;;;10.10;2.58;;;;;;;;;;5055248;28;20520;-84
2023/10/23 10:05:01;;;;;;;10.00;2.00;;;;;;;;;;5073100;28;20081;-84
2023/10/23 10:07:29;;;;;;;8.05;2.10;;;;;;;;;;5073163;28;20020;-84
2023/10/23 10:09:55;;;;;;;5.00;1.90;;;;;;;;;;5055076;28;20488;-84
2023/10/23 10:12:22;;;;;;;7.75;1.60;;;;;;;;;;5073046;28;20052;-83
2023/10/23 10:14:47;;;;;;;9.95;1.85;;;;;;;;;;5055039;28;20074;-84
2023/10/23 10:17:13;;;;;;;5.97;1.80;;;;;;;;;;5072990;28;20048;-84
2023/10/23 10:19:39;;;;;;;3.95;1.40;;;;;;;;;;5073019;28;20024;-84
2023/10/23 10:22:09;;;;;;;4.20;1.73;;;;;;;;;;5072852;28;20044;-83
2023/10/23 10:24:35;;;;;;;7.97;2.00;;;;;;;;;;5072839;28;20035;-83
2023/10/23 10:27:03;;;;;;;7.88;1.83;;;;;;;;;;5054949;28;20458;-83
2023/10/23 10:29:29;;;;;;;8.15;1.77;;;;;;;;;;5072893;28;20012;-83
2023/10/23 10:32:15;;;;;;;4.60;1.67;;;;;;;;;;5058584;28;20047;-84
2023/10/23 10:34:46;;;;;;;6.43;1.60;;;;;;;;;;5058247;28;20431;-84
2023/10/23 10:37:11;;;;;;;6.45;1.85;;;;;;;;;;5058739;28;20025;-84
2023/10/23 10:39:46;;;;;;;8.05;2.25;;;;;;;;;;5076610;28;20031;-84
2023/10/23 10:42:15;;;;;;;8.13;1.77;;;;;;;;;;5076601;28;20491;-84
2023/10/23 10:44:53;;;;;;;8.85;1.73;;;;;;;;;;5058573;28;20056;-84
2023/10/23 10:47:19;;;;;;;11.02;1.92;;;;;;;;;;5076605;28;20388;-84
2023/10/23 10:49:48;;;;;;;10.25;1.70;;;;;;;;;;5058607;28;20028;-84
2023/10/23 10:52:30;;;;;;;10.23;1.77;;;;;;;;;;5058480;28;20017;-84
2023/10/23 10:54:55;;;;;;;6.00;1.60;;;;;;;;;;5058523;28;20024;-84
2023/10/23 10:57:21;;;;;;;6.55;2.30;;;;;;;;;;5076366;28;20025;-84
2023/10/23 10:59:46;;;;;;;10.77;1.63;;;;;;;;;;5076302;28;20017;-84
2023/10/23 11:02:11;;;;;;;5.00;1.57;;;;;;;;;;5076685;28;20375;-84
2023/10/23 11:04:36;;;;;;;6.40;1.40;;;;;;;;;;5076216;28;20331;-84
2023/10/23 11:07:02;;;;;;;7.25;1.73;;;;;;;;;;5058192;28;20665;-84
2023/10/23 11:09:27;;;;;;;3.95;1.45;;;;;;;;;;5058292;28;20108;-84
2023/10/23 11:11:52;;;;;;;3.80;1.67;;;;;;;;;;5076178;28;20013;-84
2023/10/23 11:14:17;;;;;;;5.47;1.70;;;;;;;;;;5058261;28;20024;-84
2023/10/23 11:16:42;;;;;;;13.07;2.50;;;;;;;;;;5058072;28;20373;-84
2023/10/23 11:19:08;;;;;;;8.13;2.47;;;;;;;;;;5075961;28;20021;-83
2023/10/23 11:21:33;;;;;;;6.20;1.60;;;;;;;;;;5057814;28;20745;-84
2023/10/23 11:24:00;;;;;;;5.75;1.75;;;;;;;;;;5075837;28;20055;-84
2023/10/23 11:26:26;;;;;;;7.38;2.40;;;;;;;;;;5057909;28;20480;-84
2023/10/23 11:28:51;;;;;;;5.60;2.22;;;;;;;;;;5075812;28;20063;-84
2023/10/23 11:31:16;;;;;;;9.07;2.03;;;;;;;;;;5075751;28;20020;-84
2023/10/23 11:33:41;;;;;;;11.33;2.20;;;;;;;;;;5075676;28;20241;-84
2023/10/23 11:36:07;;;;;;;9.23;2.90;;;;;;;;;;5057684;28;20081;-84
2023/10/23 11:38:36;;;;;;;7.35;2.08;;;;;;;;;;5075544;28;20257;-84
2023/10/23 11:41:01;;;;;;;6.43;1.77;;;;;;;;;;5057568;28;20017;-84
2023/10/23 11:43:26;;;;;;;9.73;1.88;;;;;;;;;;5057459;28;20043;-84
2023/10/23 11:45:51;;;;;;;5.25;1.77;;;;;;;;;;5057465;28;20024;-84
2023/10/23 11:48:17;;;;;;;6.88;1.80;;;;;;;;;;5075447;28;20469;-84
2023/10/23 11:50:42;;;;;;;7.25;1.45;;;;;;;;;;5057412;28;20032;-84
2023/10/23 11:53:08;;;;;;;2.67;1.10;;;;;;;;;;5075324;28;20017;-84
2023/10/23 11:55:35;;;;;;;10.57;1.95;;;;;;;;;;5057271;28;20044;-83
2023/10/23 11:58:01;;;;;;;6.30;1.92;;;;;;;;;;5057190;28;20017;-84
2023/10/23 12:00:27;;;;;;;8.32;1.92;;;;;;;;;;5075121;28;20115;-84
2023/10/23 12:02:52;;;;;;;7.97;1.88;;;;;;;;;;5075156;28;20031;-84
2023/10/23 12:05:18;;;;;;;8.37;2.17;;;;;;;;;;5057054;28;20024;-84
2023/10/23 12:07:48;;;;;;;7.50;1.98;;;;;;;;;;5057069;28;20043;-84
2023/10/23 12:10:13;;;;;;;6.35;1.40;;;;;;;;;;5057088;28;20016;-84
2023/10/23 12:12:40;;;;;;;3.10;1.67;;;;;;;;;;5074921;28;20417;-84
2023/10/23 12:15:06;;;;;;;4.93;1.35;;;;;;;;;;5074842;28;20020;-84
2023/10/23 12:17:31;;;;;;;8.95;2.10;;;;;;;;;;5074845;28;20366;-84
2023/10/23 12:19:56;;;;;;;7.80;1.87;;;;;;;;;;5056889;28;20077;-84
2023/10/23 12:22:22;;;;;;;14.67;1.70;;;;;;;;;;5074534;28;20097;-84
2023/10/23 12:24:47;;;;;;;4.63;1.73;;;;;;;;;;5056650;28;20391;-84
2023/10/23 12:27:12;;;;;;;8.50;1.40;;;;;;;;;;5056726;28;20376;-84
2023/10/23 12:29:37;;;;;;;4.07;1.30;;;;;;;;;;5074654;28;20024;-83
2023/10/23 12:32:04;;;;;;;4.47;1.90;;;;;;;;;;5074537;28;20252;-83
2023/10/23 12:34:30;;;;;;;5.15;1.63;;;;;;;;;;5074355;28;20023;-83
2023/10/23 12:36:56;;;;;;;6.88;1.60;;;;;;;;;;5074560;28;20112;-84
2023/10/23 12:39:21;;;;;;;5.00;1.67;;;;;;;;;;5056493;28;20059;-84
2023/10/23 12:41:47;;;;;;;6.70;1.50;;;;;;;;;;5074404;28;20484;-84
2023/10/23 12:44:12;;;;;;;5.28;1.30;;;;;;;;;;5056234;28;20024;-84
2023/10/23 12:46:37;;;;;;;4.37;1.27;;;;;;;;;;5056323;28;20012;-84
2023/10/23 12:49:02;;;;;;;5.87;1.50;;;;;;;;;;5056374;28;20257;-84
2023/10/23 12:51:28;;;;;;;6.30;1.45;;;;;;;;;;5074262;28;20013;-84
2023/10/23 12:53:53;;;;;;;5.55;1.48;;;;;;;;;;5055811;28;20052;-83
2023/10/23 12:56:18;;;;;;;10.20;1.70;;;;;;;;;;5056146;28;20484;-84
2023/10/23 12:58:44;;;;;;;8.90;2.03;;;;;;;;;;5074090;28;20586;-83
2023/10/23 13:01:09;;;;;;;8.20;1.50;;;;;;;;;;5074032;28;20017;-84
2023/10/23 13:03:34;;;;;;;6.13;1.10;;;;;;;;;;5056187;28;20017;-84
2023/10/23 13:05:59;;;;;;;5.47;1.63;;;;;;;;;;5056084;28;20016;-84
2023/10/23 13:08:25;;;;;;;4.87;1.53;;;;;;;;;;5073916;28;20027;-84
2023/10/23 13:10:50;;;;;;;3.83;1.40;;;;;;;;;;5055924;28;20245;-83
2023/10/23 13:13:15;;;;;;;8.53;1.53;;;;;;;;;;5073761;28;20717;-84
2023/10/23 13:15:40;;;;;;;7.63;2.80;;;;;;;;;;5055858;28;20238;-84
2023/10/23 13:18:06;;;;;;;9.40;2.40;;;;;;;;;;5073776;28;20465;-84
2023/10/23 13:20:31;;;;;;;8.75;2.53;;;;;;;;;;5073682;28;20269;-84
2023/10/23 13:22:56;;;;;;;5.15;2.15;;;;;;;;;;5073586;28;20071;-84
2023/10/23 13:25:21;;;;;;;11.43;2.70;;;;;;;;;;5055599;28;20028;-84
2023/10/23 13:27:47;;;;;;;5.30;2.63;;;;;;;;;;5055663;28;20345;-84
2023/10/23 13:30:12;;;;;;;10.88;2.90;;;;;;;;;;5073541;28;20253;-84
2023/10/23 13:32:38;;;;;;;7.20;2.60;;;;;;;;;;5055598;28;20013;-84
2023/10/23 13:35:04;;;;;;;7.60;2.78;;;;;;;;;;5055486;28;20028;-84
2023/10/23 13:37:31;;;;;;;9.90;2.65;;;;;;;;;;5055426;28;20028;-84
2023/10/23 13:39:56;;;;;;;10.82;2.63;;;;;;;;;;5055395;28;20016;-84
2023/10/23 13:42:21;;;;;;;14.73;2.72;;;;;;;;;;5055505;28;20027;-84
2023/10/23 13:44:46;;;;;;;9.07;2.47;;;;;;;;;;5055279;28;20090;-83
2023/10/23 13:47:13;;;;;;;10.77;2.73;;;;;;;;;;5055392;28;20030;-84
2023/10/23 13:49:38;;;;;;;6.55;2.53;;;;;;;;;;5073334;28;20096;-84
2023/10/23 13:52:03;;;;;;;11.63;2.03;;;;;;;;;;5073338;28;20444;-84
2023/10/23 13:54:29;;;;;;;9.77;2.47;;;;;;;;;;5073345;28;20515;-84
2023/10/23 13:56:54;;;;;;;8.90;2.77;;;;;;;;;;5055248;28;20112;-84
2023/10/23 13:59:19;;;;;;;10.00;2.60;;;;;;;;;;5055170;28;20024;-84
2023/10/23 14:01:45;;;;;;;5.63;2.50;;;;;;;;;;5073218;28;20028;-84
2023/10/23 14:04:10;;;;;;;10.52;3.38;;;;;;;;;;5073084;28;20360;-84
2023/10/23 14:06:36;;;;;;;8.38;3.10;;;;;;;;;;5058580;28;20020;-84
2023/10/23 14:09:02;;;;;;;11.03;3.00;;;;;;;;;;5059373;28;20017;-84
2023/10/23 14:11:27;;;;;;;10.18;3.85;;;;;;;;;;5059503;28;20017;-84
2023/10/23 14:13:52;;;;;;;11.73;3.20;;;;;;;;;;5059225;28;20021;-84
2023/10/23 14:16:17;;;;;;;6.50;2.70;;;;;;;;;;5059219;28;20472;-84
2023/10/23 14:18:42;;;;;;;14.07;3.07;;;;;;;;;;5059306;28;20020;-83
2023/10/23 14:21:08;;;;;;;11.30;3.57;;;;;;;;;;5059109;28;20028;-84
2023/10/23 14:23:33;;;;;;;8.67;3.20;;;;;;;;;;5055518;28;20041;-84
2023/10/23 14:25:58;;;;;;;22.80;3.55;;;;;;;;;;5057095;28;20308;-84
2023/10/23 14:28:24;;;;;;;6.70;2.90;;;;;;;;;;5055627;28;20024;-84
2023/10/23 14:30:49;;;;;;;7.80;3.08;;;;;;;;;;5055638;28;20017;-84